createdAt,value
2022-12-02T00:02:05.007Z,102351.66
2022-12-02T00:04:31.824Z,102351.66
2022-12-02T00:07:00.134Z,102350.38
2022-12-02T00:09:34.923Z,102357.25
2022-12-02T00:12:16.363Z,102350.09
2022-12-02T00:14:43.117Z,102347.91
2022-12-02T00:17:09.554Z,102347.34
2022-12-02T00:19:36.113Z,102342.03
2022-12-02T00:22:02.609Z,102342.41
2022-12-02T00:24:28.998Z,102334.69
2022-12-02T00:26:55.509Z,102337.47
2022-12-02T00:29:22.006Z,102333.13
2022-12-02T00:31:48.465Z,102344.84
2022-12-02T00:34:14.922Z,102341.66
2022-12-02T00:36:41.366Z,102336.38
2022-12-02T00:39:07.833Z,102332.44
2022-12-02T00:41:34.378Z,102332.94
2022-12-02T00:44:19.370Z,102343.06
2022-12-02T00:46:45.879Z,102340.75
2022-12-02T00:49:15.427Z,102336.28
2022-12-02T00:51:43.588Z,102332.59
2022-12-02T00:54:10.927Z,102327.75
2022-12-02T00:56:38.636Z,102322.69
2022-12-02T00:59:06.227Z,102329.09
2022-12-02T01:01:35.684Z,102322.00
2022-12-02T01:04:02.414Z,102322.97
2022-12-02T01:06:28.866Z,102328.19
2022-12-02T01:08:55.427Z,102317.59
2022-12-02T01:11:21.908Z,102319.50
2022-12-02T01:13:48.339Z,102311.41
2022-12-02T01:16:14.811Z,102315.00
2022-12-02T01:18:41.418Z,102310.19
2022-12-02T01:21:07.891Z,102315.00
2022-12-02T01:23:34.320Z,102322.00
2022-12-02T01:26:00.777Z,102316.13
2022-12-02T01:28:27.523Z,102308.72
2022-12-02T01:30:54.016Z,102310.31
2022-12-02T01:33:20.462Z,102310.41
2022-12-02T01:35:46.968Z,102310.00
2022-12-02T01:38:13.830Z,102320.53
2022-12-02T01:40:40.714Z,102307.22
2022-12-02T01:43:07.392Z,102306.66
2022-12-02T01:45:34.132Z,102306.41
2022-12-02T01:48:02.069Z,102314.44
2022-12-02T01:50:30.397Z,102307.03
2022-12-02T01:52:58.497Z,102312.22
2022-12-02T01:55:26.822Z,102316.06
2022-12-02T01:57:53.718Z,102304.38
2022-12-02T02:00:20.455Z,102317.69
2022-12-02T02:02:47.240Z,102313.38
2022-12-02T02:05:31.478Z,102313.28
2022-12-02T02:08:03.472Z,102312.41
2022-12-02T02:10:30.269Z,102320.44
2022-12-02T02:12:57.711Z,102323.59
2022-12-02T02:15:25.025Z,102315.09
2022-12-02T02:17:51.903Z,102319.22
2022-12-02T02:20:21.371Z,102316.41
2022-12-02T02:23:06.239Z,102315.19
2022-12-02T02:25:34.221Z,102308.97
2022-12-02T02:28:01.795Z,102306.88
2022-12-02T02:30:29.641Z,102300.34
2022-12-02T02:32:56.988Z,102303.91
2022-12-02T02:35:23.752Z,102299.59
2022-12-02T02:37:52.516Z,102294.00
2022-12-02T02:40:20.718Z,102292.72
2022-12-02T02:42:51.414Z,102295.41
2022-12-02T02:45:20.932Z,102300.03
2022-12-02T02:47:48.595Z,102296.91
2022-12-02T02:50:16.350Z,102291.41
2022-12-02T02:52:42.833Z,102294.56
2022-12-02T02:55:17.033Z,102304.41
2022-12-02T02:57:43.528Z,102300.44
2022-12-02T03:00:10.749Z,102294.47
2022-12-02T03:02:37.535Z,102293.06
2022-12-02T03:05:05.355Z,102275.25
2022-12-02T03:07:32.842Z,102270.59
2022-12-02T03:09:59.814Z,102273.69
2022-12-02T03:12:26.792Z,102269.50
2022-12-02T03:14:53.691Z,102266.22
2022-12-02T03:17:20.507Z,102262.88
2022-12-02T03:19:48.068Z,102256.53
2022-12-02T03:22:14.912Z,102257.16
2022-12-02T03:24:41.789Z,102254.06
2022-12-02T03:27:10.031Z,102255.16
2022-12-02T03:29:37.508Z,102261.38
2022-12-02T03:32:04.581Z,102265.13
2022-12-02T03:34:31.447Z,102261.16
2022-12-02T03:36:59.056Z,102259.53
2022-12-02T03:39:26.510Z,102256.09
2022-12-02T03:41:53.228Z,102256.22
2022-12-02T03:44:19.669Z,102249.34
2022-12-02T03:46:48.199Z,102247.56
2022-12-02T03:49:17.310Z,102243.47
2022-12-02T03:51:44.139Z,102257.25
2022-12-02T03:54:12.508Z,102258.38
2022-12-02T03:56:40.657Z,102260.31
2022-12-02T03:59:08.163Z,102262.53
2022-12-02T04:01:34.697Z,102262.28
2022-12-02T04:04:01.205Z,102254.94
2022-12-02T04:06:27.706Z,102258.59
2022-12-02T04:08:54.130Z,102253.75
2022-12-02T04:11:20.562Z,102256.13
2022-12-02T04:13:47.062Z,102256.13
2022-12-02T04:16:13.676Z,102254.44
2022-12-02T04:18:40.147Z,102244.22
2022-12-02T04:21:06.649Z,102251.81
2022-12-02T04:23:33.120Z,102239.66
2022-12-02T04:25:59.556Z,102240.50
2022-12-02T04:28:26.460Z,102233.47
2022-12-02T04:30:53.040Z,102231.72
2022-12-02T04:33:19.569Z,102232.59
2022-12-02T04:35:46.052Z,102224.28
2022-12-02T04:38:12.801Z,102222.06
2022-12-02T04:40:39.702Z,102213.50
2022-12-02T04:43:06.608Z,102229.56
2022-12-02T04:45:33.380Z,102224.03
2022-12-02T04:47:59.774Z,102220.88
2022-12-02T04:50:26.202Z,102229.38
2022-12-02T04:52:52.657Z,102223.59
2022-12-02T04:55:19.160Z,102221.00
2022-12-02T04:57:45.595Z,102215.63
2022-12-02T05:00:12.670Z,102222.09
2022-12-02T05:02:39.225Z,102222.38
2022-12-02T05:05:06.255Z,102209.28
2022-12-02T05:07:32.802Z,102219.78
2022-12-02T05:09:59.345Z,102212.00
2022-12-02T05:12:25.878Z,102207.81
2022-12-02T05:14:52.986Z,102201.16
2022-12-02T05:17:20.352Z,102203.47
2022-12-02T05:19:47.015Z,102205.75
2022-12-02T05:22:13.551Z,102204.72
2022-12-02T05:24:40.462Z,102194.84
2022-12-02T05:27:07.004Z,102202.78
2022-12-02T05:29:33.488Z,102203.06
2022-12-02T05:32:00.005Z,102191.38
2022-12-02T05:34:26.412Z,102210.75
2022-12-02T05:36:52.847Z,102200.03
2022-12-02T05:39:19.311Z,102207.22
2022-12-02T05:41:48.053Z,102207.03
2022-12-02T05:44:29.154Z,102210.66
2022-12-02T05:47:02.912Z,102210.22
2022-12-02T05:49:33.153Z,102205.97
2022-12-02T05:52:02.180Z,102201.50
2022-12-02T05:54:29.385Z,102196.84
2022-12-02T05:56:57.029Z,102190.16
2022-12-02T05:59:24.119Z,102190.28
2022-12-02T06:01:53.431Z,102187.19
2022-12-02T06:04:27.017Z,102196.31
2022-12-02T06:06:55.534Z,102195.84
2022-12-02T06:09:29.724Z,102195.72
2022-12-02T06:11:57.184Z,102187.78
2022-12-02T06:14:25.815Z,102191.97
2022-12-02T06:16:55.617Z,102196.31
2022-12-02T06:19:39.821Z,102191.66
2022-12-02T06:22:18.152Z,102191.31
2022-12-02T06:24:45.205Z,102191.66
2022-12-02T06:27:16.496Z,102194.66
2022-12-02T06:30:04.832Z,102210.28
2022-12-02T06:32:40.424Z,102194.44
2022-12-02T06:35:33.447Z,102199.69
2022-12-02T06:38:03.599Z,102197.56
2022-12-02T06:40:32.608Z,102196.72
2022-12-02T06:43:01.901Z,102196.66
2022-12-02T06:45:31.680Z,102188.97
2022-12-02T06:48:04.315Z,102187.78
2022-12-02T06:50:40.558Z,102198.81
2022-12-02T06:53:24.062Z,102205.06
2022-12-02T06:55:53.877Z,102205.81
2022-12-02T06:58:34.580Z,102203.16
2022-12-02T07:01:20.120Z,102206.34
2022-12-02T07:04:12.712Z,102201.09
2022-12-02T07:06:41.222Z,102207.72
2022-12-02T07:09:22.669Z,102203.75
2022-12-02T07:11:51.727Z,102209.47
2022-12-02T07:14:27.184Z,102213.94
2022-12-02T07:16:55.770Z,102215.59
2022-12-02T07:19:35.705Z,102220.94
2022-12-02T07:22:02.602Z,102209.81
2022-12-02T07:24:29.018Z,102222.25
2022-12-02T07:26:58.761Z,102215.59
2022-12-02T07:29:31.128Z,102215.84
2022-12-02T07:31:57.584Z,102217.66
2022-12-02T07:34:24.259Z,102224.72
2022-12-02T07:36:52.064Z,102226.19
2022-12-02T07:39:18.520Z,102223.44
2022-12-02T07:41:45.393Z,102221.63
2022-12-02T07:44:11.945Z,102225.69
2022-12-02T07:46:38.500Z,102222.31
2022-12-02T07:49:05.083Z,102220.66
2022-12-02T07:51:31.524Z,102231.28
2022-12-02T07:53:58.011Z,102231.94
2022-12-02T07:56:24.497Z,102216.88
2022-12-02T08:01:37.723Z,102223.84
2022-12-02T08:04:04.260Z,102237.41
2022-12-02T08:06:35.753Z,102228.59
2022-12-02T08:09:05.437Z,102237.47
2022-12-02T08:11:31.895Z,102230.75
2022-12-02T08:13:58.326Z,102222.91
2022-12-02T08:16:24.929Z,102215.50
2022-12-02T08:18:51.474Z,102216.53
2022-12-02T08:21:17.942Z,102224.38
2022-12-02T08:23:44.384Z,102229.88
2022-12-02T08:26:10.955Z,102222.47
2022-12-02T08:28:37.520Z,102221.00
2022-12-02T08:31:04.080Z,102216.53
2022-12-02T08:33:30.652Z,102221.09
2022-12-02T08:35:57.264Z,102210.84
2022-12-02T08:38:23.775Z,102224.91
2022-12-02T08:40:50.253Z,102222.56
2022-12-02T08:43:16.657Z,102227.66
2022-12-02T08:45:43.799Z,102219.63
2022-12-02T08:48:10.309Z,102219.03
2022-12-02T08:50:36.795Z,102223.06
2022-12-02T08:53:03.849Z,102221.63
2022-12-02T08:55:30.809Z,102228.50
2022-12-02T08:57:57.495Z,102224.22
2022-12-02T09:00:24.132Z,102221.19
2022-12-02T09:02:50.750Z,102216.97
2022-12-02T09:05:17.464Z,102222.66
2022-12-02T09:07:43.979Z,102226.00
2022-12-02T09:10:11.896Z,102216.47
2022-12-02T09:12:38.457Z,102215.16
2022-12-02T09:15:06.027Z,102213.69
2022-12-02T09:17:32.781Z,102214.38
2022-12-02T09:19:59.384Z,102221.09
2022-12-02T09:22:25.766Z,102209.63
2022-12-02T09:24:52.428Z,102208.44
2022-12-02T09:27:19.024Z,102209.03
2022-12-02T09:29:45.520Z,102207.38
2022-12-02T09:32:11.975Z,102206.69
2022-12-02T09:34:38.456Z,102207.81
2022-12-02T09:37:04.971Z,102210.06
2022-12-02T09:39:37.108Z,102196.09
2022-12-02T09:42:06.087Z,102207.47
2022-12-02T09:44:32.610Z,102205.97
2022-12-02T09:46:59.331Z,102199.50
2022-12-02T09:49:26.044Z,102205.75
2022-12-02T09:51:57.716Z,102204.25
2022-12-02T09:54:24.178Z,102204.34
2022-12-02T09:56:50.810Z,102199.69
2022-12-02T09:59:17.795Z,102195.53
2022-12-02T10:01:47.452Z,102202.22
2022-12-02T10:04:18.626Z,102198.66
2022-12-02T10:06:45.117Z,102196.06
2022-12-02T10:09:25.617Z,102193.88
2022-12-02T10:11:52.039Z,102194.22
2022-12-02T10:14:18.672Z,102202.53
2022-12-02T10:16:45.206Z,102192.59
2022-12-02T10:19:18.805Z,102193.75
2022-12-02T10:21:46.017Z,102184.09
2022-12-02T10:24:13.247Z,102191.31
2022-12-02T10:26:51.738Z,102185.00
2022-12-02T10:29:28.597Z,102189.31
2022-12-02T10:32:02.448Z,102186.44
2022-12-02T10:34:30.665Z,102183.53
2022-12-02T10:37:14.597Z,102177.34
2022-12-02T10:39:41.067Z,102183.50
2022-12-02T10:42:21.726Z,102181.63
2022-12-02T10:45:17.354Z,102167.91
2022-12-02T10:47:43.880Z,102175.09
2022-12-02T10:50:18.596Z,102173.75
2022-12-02T10:52:51.688Z,102179.22
2022-12-02T10:55:20.070Z,102175.91
2022-12-02T10:57:48.265Z,102164.50
2022-12-02T11:00:23.936Z,102165.84
2022-12-02T11:02:54.815Z,102171.78
2022-12-02T11:05:23.627Z,102174.47
2022-12-02T11:08:19.923Z,102174.56
2022-12-02T11:10:49.499Z,102167.97
2022-12-02T11:13:15.931Z,102170.19
2022-12-02T11:15:52.849Z,102164.84
2022-12-02T11:18:25.355Z,102164.59
2022-12-02T11:21:01.358Z,102166.81
2022-12-02T11:23:29.756Z,102170.56
2022-12-02T11:26:00.884Z,102173.56
2022-12-02T11:28:27.426Z,102172.81
2022-12-02T11:31:12.304Z,102168.00
2022-12-02T11:33:53.057Z,102173.59
2022-12-02T11:36:25.956Z,102171.59
2022-12-02T11:38:52.508Z,102172.63
2022-12-02T11:41:25.592Z,102175.56
2022-12-02T11:44:09.253Z,102157.53
2022-12-02T11:46:42.456Z,102161.94
2022-12-02T11:49:26.107Z,102164.63
2022-12-02T11:52:06.603Z,102163.63
2022-12-02T11:54:40.529Z,102160.31
2022-12-02T11:57:07.700Z,102153.94
2022-12-02T11:59:36.483Z,102150.34
2022-12-02T12:02:21.280Z,102150.78
2022-12-02T12:05:02.308Z,102148.72
2022-12-02T12:08:03.308Z,102143.28
2022-12-02T12:10:34.674Z,102130.28
2022-12-02T12:13:23.954Z,102137.75
2022-12-02T12:15:59.090Z,102140.69
2022-12-02T12:18:46.421Z,102129.97
2022-12-02T12:21:16.192Z,102134.38
2022-12-02T12:23:45.403Z,102129.75
2022-12-02T12:26:31.562Z,102132.25
2022-12-02T12:29:05.244Z,102124.00
2022-12-02T12:31:37.823Z,102123.31
2022-12-02T12:34:05.441Z,102127.50
2022-12-02T12:36:31.939Z,102119.19
2022-12-02T12:38:58.568Z,102115.84
2022-12-02T12:41:37.268Z,102107.34
2022-12-02T12:44:11.926Z,102109.59
2022-12-02T12:46:38.548Z,102114.56
2022-12-02T12:49:05.123Z,102107.53
2022-12-02T12:51:31.691Z,102113.94
2022-12-02T12:53:58.218Z,102109.28
2022-12-02T12:56:24.736Z,102099.63
2022-12-02T12:58:51.325Z,102109.78
2022-12-02T13:01:23.117Z,102110.19
2022-12-02T13:03:51.156Z,102108.53
2022-12-02T13:06:18.086Z,102108.41
2022-12-02T13:08:44.537Z,102105.56
2022-12-02T13:11:10.973Z,102106.16
2022-12-02T13:13:37.627Z,102109.28
2022-12-02T13:16:04.323Z,102111.78
2022-12-02T13:18:30.823Z,102100.31
2022-12-02T13:20:57.292Z,102104.44
2022-12-02T13:23:23.747Z,102102.88
2022-12-02T13:25:50.243Z,102097.34
2022-12-02T13:28:16.711Z,102106.91
2022-12-02T13:30:43.279Z,102111.91
2022-12-02T13:33:09.822Z,102100.00
2022-12-02T13:35:36.418Z,102102.59
2022-12-02T13:38:02.938Z,102104.00
2022-12-02T13:40:29.420Z,102109.28
2022-12-02T13:42:57.671Z,102095.91
2022-12-02T13:45:24.599Z,102103.75
2022-12-02T13:47:53.025Z,102104.06
2022-12-02T13:50:19.474Z,102109.94
2022-12-02T13:52:45.959Z,102105.66
2022-12-02T13:55:12.600Z,102098.41
2022-12-02T13:57:39.062Z,102101.19
2022-12-02T14:00:06.420Z,102100.22
2022-12-02T14:02:32.900Z,102105.22
2022-12-02T14:05:05.772Z,102099.75
2022-12-02T14:07:34.787Z,102095.44
2022-12-02T14:10:01.401Z,102103.19
2022-12-02T14:12:27.873Z,102105.81
2022-12-02T14:14:54.655Z,102110.88
2022-12-02T14:17:21.396Z,102108.97
2022-12-02T14:19:47.967Z,102115.84
2022-12-02T14:22:14.517Z,102113.88
2022-12-02T14:24:44.464Z,102121.81
2022-12-02T14:27:15.027Z,102125.25
2022-12-02T14:29:41.541Z,102121.19
2022-12-02T14:32:08.102Z,102125.78
2022-12-02T14:34:34.677Z,102129.38
2022-12-02T14:37:01.258Z,102134.22
2022-12-02T14:39:27.744Z,102131.56
2022-12-02T14:41:54.189Z,102113.09
2022-12-02T14:44:20.897Z,102127.47
2022-12-02T14:46:47.557Z,102116.78
2022-12-02T14:52:01.021Z,102130.00
2022-12-02T14:54:27.447Z,102130.16
2022-12-02T14:56:53.905Z,102138.16
2022-12-02T14:59:20.342Z,102128.63
2022-12-02T15:01:46.984Z,102127.06
2022-12-02T15:04:13.633Z,102127.59
2022-12-02T15:06:40.108Z,102131.13
2022-12-02T15:09:07.152Z,102125.25
2022-12-02T15:11:33.660Z,102123.72
2022-12-02T15:14:00.136Z,102127.59
2022-12-02T15:16:27.371Z,102129.75
2022-12-02T15:18:53.898Z,102132.59
2022-12-02T15:21:20.353Z,102139.38
2022-12-02T15:23:47.042Z,102146.91
2022-12-02T15:26:13.457Z,102149.97
2022-12-02T15:28:40.047Z,102147.13
2022-12-02T15:31:06.660Z,102146.25
2022-12-02T15:33:33.229Z,102158.75
2022-12-02T15:35:59.722Z,102154.97
2022-12-02T15:38:26.557Z,102152.75
2022-12-02T15:40:54.032Z,102162.97
2022-12-02T15:43:20.543Z,102167.84
2022-12-02T15:45:46.945Z,102152.34
2022-12-02T15:48:13.477Z,102171.44
2022-12-02T15:50:40.004Z,102157.50
2022-12-02T15:53:06.443Z,102162.13
2022-12-02T15:55:33.243Z,102169.53
2022-12-02T15:57:59.742Z,102161.69
2022-12-02T16:00:26.301Z,102170.31
2022-12-02T16:02:56.282Z,102169.50
2022-12-02T16:05:23.311Z,102167.81
2022-12-02T16:07:50.056Z,102162.69
2022-12-02T16:10:16.726Z,102167.69
2022-12-02T16:12:43.202Z,102158.13
2022-12-02T16:15:10.257Z,102172.81
2022-12-02T16:17:37.346Z,102180.69
2022-12-02T16:20:05.400Z,102178.81
2022-12-02T16:22:31.972Z,102172.81
2022-12-02T16:24:58.455Z,102167.25
2022-12-02T16:27:24.983Z,102171.81
2022-12-02T16:29:51.488Z,102170.88
2022-12-02T16:32:20.619Z,102174.91
2022-12-02T16:34:48.361Z,102178.59
2022-12-02T16:37:17.341Z,102178.56
2022-12-02T16:39:43.973Z,102178.44
2022-12-02T16:42:10.517Z,102178.69
2022-12-02T16:44:37.043Z,102175.69
2022-12-02T16:47:04.544Z,102184.75
2022-12-02T16:49:31.139Z,102187.69
2022-12-02T16:51:58.631Z,102192.13
2022-12-02T16:54:25.875Z,102195.34
2022-12-02T16:56:55.851Z,102199.66
2022-12-02T16:59:24.081Z,102196.38
2022-12-02T17:01:50.772Z,102187.16
2022-12-02T17:04:17.411Z,102194.72
2022-12-02T17:06:43.911Z,102205.47
2022-12-02T17:09:10.422Z,102205.03
2022-12-02T17:11:36.907Z,102200.81
2022-12-02T17:14:03.622Z,102196.09
2022-12-02T17:16:30.192Z,102202.41
2022-12-02T17:18:56.935Z,102203.31
2022-12-02T17:21:23.431Z,102199.78
2022-12-02T17:23:50.191Z,102209.19
2022-12-02T17:26:16.838Z,102201.59
2022-12-02T17:28:43.329Z,102200.91
2022-12-02T17:31:10.772Z,102203.69
2022-12-02T17:33:37.695Z,102198.13
2022-12-02T17:36:04.751Z,102203.38
2022-12-02T17:38:31.222Z,102207.72
2022-12-02T17:41:12.876Z,102197.66
2022-12-02T17:43:39.881Z,102203.47
2022-12-02T17:46:06.810Z,102210.88
2022-12-02T17:48:33.425Z,102203.53
2022-12-02T17:50:59.875Z,102210.81
2022-12-02T17:53:26.537Z,102204.19
2022-12-02T17:55:53.020Z,102210.47
2022-12-02T17:58:19.496Z,102210.88
2022-12-02T18:00:46.054Z,102206.09
2022-12-02T18:03:12.670Z,102204.81
2022-12-02T18:05:39.191Z,102212.56
2022-12-02T18:08:05.763Z,102201.28
2022-12-02T18:10:32.412Z,102203.06
2022-12-02T18:12:59.042Z,102202.72
2022-12-02T18:15:25.572Z,102209.72
2022-12-02T18:17:52.109Z,102213.09
2022-12-02T18:20:18.779Z,102211.44
2022-12-02T18:22:45.813Z,102209.59
2022-12-02T18:25:12.394Z,102207.63
2022-12-02T18:27:38.898Z,102217.53
2022-12-02T18:30:06.303Z,102219.19
2022-12-02T18:32:32.874Z,102216.63
2022-12-02T18:34:59.436Z,102216.16
2022-12-02T18:37:25.892Z,102201.84
2022-12-02T18:39:52.380Z,102203.44
2022-12-02T18:42:18.879Z,102201.72
2022-12-02T18:44:45.411Z,102205.84
2022-12-02T18:47:11.978Z,102210.41
2022-12-02T18:49:42.533Z,102197.75
2022-12-02T18:52:09.698Z,102201.78
2022-12-02T18:54:36.373Z,102204.31
2022-12-02T18:57:02.879Z,102206.78
2022-12-02T18:59:30.411Z,102193.78
2022-12-02T19:01:56.924Z,102197.31
2022-12-02T19:04:23.537Z,102195.38
2022-12-02T19:06:49.974Z,102198.34
2022-12-02T19:09:17.653Z,102194.41
2022-12-02T19:11:44.161Z,102195.53
2022-12-02T19:14:10.599Z,102184.97
2022-12-02T19:16:37.282Z,102186.09
2022-12-02T19:19:03.837Z,102188.09
2022-12-02T19:21:30.322Z,102180.03
2022-12-02T19:23:56.818Z,102185.13
2022-12-02T19:26:25.040Z,102192.53
2022-12-02T19:28:52.120Z,102190.66
2022-12-02T19:31:18.741Z,102182.53
2022-12-02T19:33:45.468Z,102194.34
2022-12-02T19:36:12.103Z,102198.66
2022-12-02T19:38:38.575Z,102190.59
2022-12-02T19:41:05.248Z,102191.06
2022-12-02T19:43:35.535Z,102184.22
2022-12-02T19:46:03.295Z,102182.75
2022-12-02T19:48:29.858Z,102188.19
2022-12-02T19:50:56.331Z,102183.38
2022-12-02T19:53:23.025Z,102182.84
2022-12-02T19:55:49.537Z,102187.38
2022-12-02T19:58:16.032Z,102177.72
2022-12-02T20:00:44.854Z,102184.91
2022-12-02T20:03:11.442Z,102189.06
2022-12-02T20:05:38.033Z,102187.72
2022-12-02T20:08:04.655Z,102182.81
2022-12-02T20:10:31.208Z,102186.75
2022-12-02T20:12:57.705Z,102185.78
2022-12-02T20:15:24.157Z,102182.41
2022-12-02T20:17:51.240Z,102183.53
2022-12-02T20:20:17.819Z,102185.31
2022-12-02T20:22:44.736Z,102184.13
2022-12-02T20:25:12.143Z,102183.38
2022-12-02T20:27:39.419Z,102180.38
2022-12-02T20:30:08.594Z,102189.78
2022-12-02T20:32:35.642Z,102192.03
2022-12-02T20:35:02.248Z,102189.16
2022-12-02T20:37:28.788Z,102189.09
2022-12-02T20:39:55.289Z,102186.44
2022-12-02T20:42:21.836Z,102173.34
2022-12-02T20:44:52.734Z,102184.63
2022-12-02T20:47:19.865Z,102186.09
2022-12-02T20:49:46.378Z,102182.19
2022-12-02T20:52:12.967Z,102180.84
2022-12-02T20:54:39.517Z,102187.53
2022-12-02T20:57:07.005Z,102187.22
2022-12-02T20:59:33.792Z,102177.81
2022-12-02T21:02:00.288Z,102176.06
2022-12-02T21:04:26.799Z,102174.81
2022-12-02T21:06:53.255Z,102171.84
2022-12-02T21:09:20.028Z,102173.16
2022-12-02T21:11:46.512Z,102178.56
2022-12-02T21:14:12.965Z,102169.31
2022-12-02T21:16:39.487Z,102174.84
2022-12-02T21:19:06.218Z,102184.06
2022-12-02T21:21:33.457Z,102184.69
2022-12-02T21:24:03.669Z,102189.25
2022-12-02T21:26:31.490Z,102184.53
2022-12-02T21:28:58.146Z,102184.69
2022-12-02T21:31:24.663Z,102182.03
2022-12-02T21:33:51.236Z,102181.16
2022-12-02T21:36:17.672Z,102182.41
2022-12-02T21:38:47.534Z,102180.88
2022-12-02T21:41:13.996Z,102188.47
2022-12-02T21:43:40.406Z,102186.09
2022-12-02T21:46:06.859Z,102182.75
2022-12-02T21:48:33.309Z,102189.50
2022-12-02T21:50:59.782Z,102185.97
2022-12-02T21:53:26.378Z,102188.13
2022-12-02T21:55:52.833Z,102187.53
2022-12-02T21:58:19.302Z,102174.50
2022-12-02T22:00:47.288Z,102176.94
2022-12-02T22:03:15.252Z,102176.28
2022-12-02T22:05:41.844Z,102173.63
2022-12-02T22:08:08.390Z,102172.38
2022-12-02T22:10:34.906Z,102180.63
2022-12-02T22:13:01.398Z,102180.88
2022-12-02T22:15:27.906Z,102173.09
2022-12-02T22:17:54.438Z,102175.59
2022-12-02T22:20:21.274Z,102175.06
2022-12-02T22:22:47.737Z,102178.28
2022-12-02T22:25:14.414Z,102181.03
2022-12-02T22:27:41.005Z,102180.88
2022-12-02T22:30:08.596Z,102181.81
2022-12-02T22:32:35.445Z,102173.41
2022-12-02T22:35:02.411Z,102173.34
2022-12-02T22:37:28.855Z,102177.19
2022-12-02T22:39:55.311Z,102171.91
2022-12-02T22:42:21.821Z,102171.44
2022-12-02T22:44:48.299Z,102178.50
2022-12-02T22:47:14.807Z,102172.38
2022-12-02T22:49:41.287Z,102177.59
2022-12-02T22:52:07.884Z,102172.94
2022-12-02T22:54:34.467Z,102164.94
2022-12-02T22:57:00.928Z,102168.78
2022-12-02T22:59:27.395Z,102168.00
2022-12-02T23:01:53.884Z,102164.22
2022-12-02T23:04:20.351Z,102160.22
2022-12-02T23:06:46.769Z,102157.25
2022-12-02T23:09:13.201Z,102163.03
2022-12-02T23:11:40.045Z,102162.97
2022-12-02T23:14:06.985Z,102168.31
2022-12-02T23:16:33.518Z,102165.72
2022-12-02T23:19:00.016Z,102160.78
2022-12-02T23:21:26.500Z,102154.19
2022-12-02T23:23:52.960Z,102150.91
2022-12-02T23:26:19.457Z,102148.56
2022-12-02T23:28:45.950Z,102145.84
2022-12-02T23:31:12.550Z,102148.53
2022-12-02T23:33:39.071Z,102137.75
2022-12-02T23:36:05.808Z,102151.38
2022-12-02T23:38:32.294Z,102138.75
2022-12-02T23:40:58.747Z,102138.91
2022-12-02T23:43:25.436Z,102140.16
2022-12-02T23:45:52.022Z,102129.66
2022-12-02T23:48:18.504Z,102139.44
2022-12-02T23:50:45.068Z,102128.63
2022-12-02T23:53:11.549Z,102125.69
2022-12-02T23:55:37.969Z,102141.50
2022-12-02T23:58:04.436Z,102128.22
